sensor_id;sensor_type;location;lat;lon;timestamp;P1;durP1;ratioP1;P2;durP2;ratioP2
70927;SDS011;58587;53.034;18.576;2023-06-22T08:45:59;3.37;;;2.53;;
70927;SDS011;58587;53.034;18.576;2023-06-22T08:48:24;4.45;;;2.75;;
70927;SDS011;58587;53.034;18.576;2023-06-22T08:50:49;4.90;;;3.33;;
70927;SDS011;58587;53.034;18.576;2023-06-22T08:53:15;8.30;;;2.93;;
70927;SDS011;58587;53.034;18.576;2023-06-22T08:55:40;4.87;;;2.20;;
70927;SDS011;58587;53.034;18.576;2023-06-22T08:58:05;4.23;;;2.87;;
70927;SDS011;58587;53.034;18.576;2023-06-22T09:00:31;4.32;;;2.60;;
70927;SDS011;58587;53.034;18.576;2023-06-22T09:02:59;4.27;;;2.40;;
70927;SDS011;58587;53.034;18.576;2023-06-22T09:05:25;3.95;;;2.60;;
70927;SDS011;58587;53.034;18.576;2023-06-22T09:07:51;3.63;;;2.77;;
70927;SDS011;58587;53.034;18.576;2023-06-22T09:10:16;3.97;;;2.63;;
70927;SDS011;58587;53.034;18.576;2023-06-22T09:12:42;3.27;;;2.70;;
70927;SDS011;58587;53.034;18.576;2023-06-22T09:15:08;4.18;;;2.70;;
70927;SDS011;58587;53.034;18.576;2023-06-22T09:17:33;4.80;;;2.80;;
70927;SDS011;58587;53.034;18.576;2023-06-22T09:20:00;9.30;;;3.35;;
70927;SDS011;58587;53.034;18.576;2023-06-22T09:22:25;4.00;;;3.03;;
70927;SDS011;58587;53.034;18.576;2023-06-22T09:24:54;5.05;;;3.03;;
70927;SDS011;58587;53.034;18.576;2023-06-22T09:27:20;5.70;;;2.78;;
70927;SDS011;58587;53.034;18.576;2023-06-22T09:29:45;4.43;;;2.93;;
70927;SDS011;58587;53.034;18.576;2023-06-22T09:32:10;4.43;;;2.53;;
70927;SDS011;58587;53.034;18.576;2023-06-22T09:34:35;4.10;;;2.63;;
70927;SDS011;58587;53.034;18.576;2023-06-22T09:37:01;6.37;;;3.10;;
70927;SDS011;58587;53.034;18.576;2023-06-22T09:39:27;3.35;;;2.80;;
70927;SDS011;58587;53.034;18.576;2023-06-22T09:41:52;6.47;;;2.90;;
70927;SDS011;58587;53.034;18.576;2023-06-22T09:44:17;4.53;;;2.47;;
70927;SDS011;58587;53.034;18.576;2023-06-22T09:46:43;5.83;;;2.60;;
70927;SDS011;58587;53.034;18.576;2023-06-22T09:49:09;2.97;;;2.40;;
70927;SDS011;58587;53.034;18.576;2023-06-22T09:51:34;4.30;;;2.70;;
70927;SDS011;58587;53.034;18.576;2023-06-22T09:53:59;3.87;;;2.50;;
70927;SDS011;58587;53.034;18.576;2023-06-22T09:56:25;2.85;;;2.40;;
70927;SDS011;58587;53.034;18.576;2023-06-22T09:58:53;6.20;;;2.53;;
70927;SDS011;58587;53.034;18.576;2023-06-22T10:01:18;6.00;;;3.03;;
70927;SDS011;58587;53.034;18.576;2023-06-22T10:03:43;4.33;;;2.80;;
70927;SDS011;58587;53.034;18.576;2023-06-22T10:06:09;4.70;;;2.90;;
70927;SDS011;58587;53.034;18.576;2023-06-22T10:08:34;3.13;;;2.50;;
70927;SDS011;58587;53.034;18.576;2023-06-22T10:11:00;9.68;;;4.55;;
70927;SDS011;58587;53.034;18.576;2023-06-22T10:13:26;6.23;;;3.40;;
70927;SDS011;58587;53.034;18.576;2023-06-22T10:15:51;4.63;;;3.08;;
70927;SDS011;58587;53.034;18.576;2023-06-22T10:18:18;5.17;;;2.90;;
70927;SDS011;58587;53.034;18.576;2023-06-22T10:20:43;4.55;;;2.40;;
70927;SDS011;58587;53.034;18.576;2023-06-22T10:23:13;4.13;;;2.50;;
70927;SDS011;58587;53.034;18.576;2023-06-22T10:25:38;2.27;;;2.00;;
70927;SDS011;58587;53.034;18.576;2023-06-22T10:28:04;4.20;;;2.27;;
70927;SDS011;58587;53.034;18.576;2023-06-22T10:30:29;3.63;;;2.23;;
70927;SDS011;58587;53.034;18.576;2023-06-22T10:32:54;2.53;;;2.33;;
70927;SDS011;58587;53.034;18.576;2023-06-22T10:35:20;3.43;;;2.33;;
70927;SDS011;58587;53.034;18.576;2023-06-22T10:37:45;3.03;;;2.67;;
70927;SDS011;58587;53.034;18.576;2023-06-22T10:40:12;3.08;;;2.33;;
70927;SDS011;58587;53.034;18.576;2023-06-22T10:42:39;3.25;;;2.47;;
70927;SDS011;58587;53.034;18.576;2023-06-22T10:45:05;4.00;;;2.80;;
70927;SDS011;58587;53.034;18.576;2023-06-22T10:47:31;3.20;;;2.40;;
70927;SDS011;58587;53.034;18.576;2023-06-22T10:49:56;4.10;;;2.50;;
70927;SDS011;58587;53.034;18.576;2023-06-22T10:52:22;3.33;;;2.00;;
70927;SDS011;58587;53.034;18.576;2023-06-22T10:54:47;3.67;;;2.40;;
70927;SDS011;58587;53.034;18.576;2023-06-22T10:57:12;3.17;;;2.63;;
70927;SDS011;58587;53.034;18.576;2023-06-22T10:59:38;3.80;;;2.40;;
70927;SDS011;58587;53.034;18.576;2023-06-22T11:02:03;2.90;;;2.50;;
70927;SDS011;58587;53.034;18.576;2023-06-22T11:04:29;4.30;;;2.77;;
70927;SDS011;58587;53.034;18.576;2023-06-22T11:06:54;3.60;;;2.43;;
70927;SDS011;58587;53.034;18.576;2023-06-22T11:09:21;3.70;;;2.47;;
70927;SDS011;58587;53.034;18.576;2023-06-22T11:11:47;3.70;;;2.30;;
70927;SDS011;58587;53.034;18.576;2023-06-22T11:14:13;3.65;;;2.03;;
70927;SDS011;58587;53.034;18.576;2023-06-22T11:16:38;4.17;;;2.70;;
70927;SDS011;58587;53.034;18.576;2023-06-22T11:19:04;3.10;;;2.50;;
70927;SDS011;58587;53.034;18.576;2023-06-22T11:21:30;4.63;;;2.77;;
70927;SDS011;58587;53.034;18.576;2023-06-22T11:23:56;3.70;;;2.45;;
70927;SDS011;58587;53.034;18.576;2023-06-22T11:26:21;2.37;;;1.90;;
70927;SDS011;58587;53.034;18.576;2023-06-22T11:28:47;3.20;;;2.60;;
70927;SDS011;58587;53.034;18.576;2023-06-22T11:31:12;4.73;;;2.50;;
70927;SDS011;58587;53.034;18.576;2023-06-22T11:33:38;3.07;;;2.43;;
70927;SDS011;58587;53.034;18.576;2023-06-22T11:36:03;2.57;;;2.30;;
70927;SDS011;58587;53.034;18.576;2023-06-22T11:38:28;3.57;;;2.67;;
70927;SDS011;58587;53.034;18.576;2023-06-22T11:40:55;3.75;;;2.50;;
70927;SDS011;58587;53.034;18.576;2023-06-22T11:43:21;3.88;;;2.58;;
70927;SDS011;58587;53.034;18.576;2023-06-22T11:45:46;3.67;;;2.70;;
70927;SDS011;58587;53.034;18.576;2023-06-22T11:48:11;4.17;;;2.67;;
70927;SDS011;58587;53.034;18.576;2023-06-22T11:50:37;2.77;;;2.57;;
70927;SDS011;58587;53.034;18.576;2023-06-22T11:53:02;3.43;;;3.00;;
70927;SDS011;58587;53.034;18.576;2023-06-22T11:55:28;5.47;;;3.50;;
70927;SDS011;58587;53.034;18.576;2023-06-22T11:57:54;3.83;;;2.90;;
70927;SDS011;58587;53.034;18.576;2023-06-22T12:00:23;3.05;;;2.53;;
70927;SDS011;58587;53.034;18.576;2023-06-22T12:02:49;4.77;;;2.77;;
70927;SDS011;58587;53.034;18.576;2023-06-22T12:05:16;6.90;;;2.97;;
70927;SDS011;58587;53.034;18.576;2023-06-22T12:07:43;4.22;;;2.80;;
70927;SDS011;58587;53.034;18.576;2023-06-22T12:10:08;3.60;;;3.10;;
70927;SDS011;58587;53.034;18.576;2023-06-22T12:12:34;5.07;;;2.73;;
70927;SDS011;58587;53.034;18.576;2023-06-22T12:14:59;3.40;;;2.65;;
70927;SDS011;58587;53.034;18.576;2023-06-22T12:17:28;3.07;;;2.77;;
70927;SDS011;58587;53.034;18.576;2023-06-22T12:19:54;4.93;;;3.20;;
70927;SDS011;58587;53.034;18.576;2023-06-22T12:22:19;4.27;;;2.60;;
70927;SDS011;58587;53.034;18.576;2023-06-22T12:24:44;4.20;;;3.00;;
70927;SDS011;58587;53.034;18.576;2023-06-22T12:27:09;3.83;;;2.80;;
70927;SDS011;58587;53.034;18.576;2023-06-22T12:29:35;4.03;;;2.90;;
70927;SDS011;58587;53.034;18.576;2023-06-22T12:32:00;3.47;;;2.87;;
70927;SDS011;58587;53.034;18.576;2023-06-22T12:34:25;4.15;;;3.00;;
70927;SDS011;58587;53.034;18.576;2023-06-22T12:36:51;4.67;;;3.10;;
70927;SDS011;58587;53.034;18.576;2023-06-22T12:39:19;3.27;;;2.97;;
70927;SDS011;58587;53.034;18.576;2023-06-22T12:41:44;4.50;;;3.00;;
70927;SDS011;58587;53.034;18.576;2023-06-22T12:44:09;3.63;;;3.10;;
70927;SDS011;58587;53.034;18.576;2023-06-22T12:46:35;3.90;;;2.90;;
70927;SDS011;58587;53.034;18.576;2023-06-22T12:49:02;3.88;;;2.78;;
70927;SDS011;58587;53.034;18.576;2023-06-22T12:51:29;4.38;;;3.35;;
70927;SDS011;58587;53.034;18.576;2023-06-22T12:53:54;5.10;;;2.93;;
70927;SDS011;58587;53.034;18.576;2023-06-22T12:56:20;3.77;;;3.07;;
70927;SDS011;58587;53.034;18.576;2023-06-22T12:58:45;3.60;;;3.03;;
70927;SDS011;58587;53.034;18.576;2023-06-22T13:01:10;3.87;;;3.33;;
70927;SDS011;58587;53.034;18.576;2023-06-22T13:03:36;3.63;;;2.70;;
70927;SDS011;58587;53.034;18.576;2023-06-22T13:06:01;3.97;;;2.80;;
70927;SDS011;58587;53.034;18.576;2023-06-22T13:08:28;4.22;;;3.30;;
70927;SDS011;58587;53.034;18.576;2023-06-22T13:10:53;3.33;;;2.93;;
70927;SDS011;58587;53.034;18.576;2023-06-22T13:13:21;5.22;;;2.90;;
70927;SDS011;58587;53.034;18.576;2023-06-22T13:15:48;3.60;;;3.05;;
70927;SDS011;58587;53.034;18.576;2023-06-22T13:18:14;2.97;;;2.70;;
70927;SDS011;58587;53.034;18.576;2023-06-22T13:20:39;3.63;;;3.03;;
70927;SDS011;58587;53.034;18.576;2023-06-22T13:23:04;6.37;;;2.60;;
70927;SDS011;58587;53.034;18.576;2023-06-22T13:25:30;4.13;;;3.20;;
70927;SDS011;58587;53.034;18.576;2023-06-22T13:27:55;5.87;;;3.00;;
70927;SDS011;58587;53.034;18.576;2023-06-22T13:30:20;5.53;;;3.13;;
70927;SDS011;58587;53.034;18.576;2023-06-22T13:32:46;3.83;;;2.90;;
70927;SDS011;58587;53.034;18.576;2023-06-22T13:35:11;4.30;;;3.27;;
70927;SDS011;58587;53.034;18.576;2023-06-22T13:37:37;4.90;;;3.30;;
70927;SDS011;58587;53.034;18.576;2023-06-22T13:40:03;3.83;;;3.42;;
70927;SDS011;58587;53.034;18.576;2023-06-22T13:42:31;4.68;;;2.90;;
70927;SDS011;58587;53.034;18.576;2023-06-22T13:44:56;4.50;;;3.60;;
70927;SDS011;58587;53.034;18.576;2023-06-22T13:47:22;3.93;;;3.43;;
70927;SDS011;58587;53.034;18.576;2023-06-22T13:49:47;3.80;;;2.97;;
70927;SDS011;58587;53.034;18.576;2023-06-22T13:52:12;3.60;;;3.27;;
70927;SDS011;58587;53.034;18.576;2023-06-22T13:54:38;3.20;;;2.90;;
70927;SDS011;58587;53.034;18.576;2023-06-22T13:57:03;5.60;;;3.65;;
70927;SDS011;58587;53.034;18.576;2023-06-22T13:59:29;4.95;;;3.33;;
70927;SDS011;58587;53.034;18.576;2023-06-22T14:01:55;4.27;;;3.77;;
70927;SDS011;58587;53.034;18.576;2023-06-22T14:04:21;4.27;;;3.70;;
70927;SDS011;58587;53.034;18.576;2023-06-22T14:06:48;5.60;;;3.78;;
70927;SDS011;58587;53.034;18.576;2023-06-22T14:09:13;5.00;;;3.63;;
70927;SDS011;58587;53.034;18.576;2023-06-22T14:11:38;5.23;;;3.97;;
70927;SDS011;58587;53.034;18.576;2023-06-22T14:14:04;4.18;;;3.78;;
70927;SDS011;58587;53.034;18.576;2023-06-22T14:16:29;3.77;;;3.47;;
70927;SDS011;58587;53.034;18.576;2023-06-22T14:18:54;4.63;;;4.23;;
70927;SDS011;58587;53.034;18.576;2023-06-22T14:21:20;4.23;;;3.80;;
70927;SDS011;58587;53.034;18.576;2023-06-22T14:23:45;3.90;;;3.60;;
70927;SDS011;58587;53.034;18.576;2023-06-22T14:26:14;4.13;;;3.80;;
70927;SDS011;58587;53.034;18.576;2023-06-22T14:28:42;3.90;;;3.53;;
70927;SDS011;58587;53.034;18.576;2023-06-22T14:31:09;4.45;;;4.05;;
70927;SDS011;58587;53.034;18.576;2023-06-22T14:33:34;4.03;;;3.73;;
70927;SDS011;58587;53.034;18.576;2023-06-22T14:35:59;4.20;;;3.43;;
70927;SDS011;58587;53.034;18.576;2023-06-22T14:38:25;4.30;;;3.80;;
70927;SDS011;58587;53.034;18.576;2023-06-22T14:40:50;4.03;;;3.37;;
70927;SDS011;58587;53.034;18.576;2023-06-22T14:43:15;4.33;;;3.50;;
70927;SDS011;58587;53.034;18.576;2023-06-22T14:45:40;5.10;;;4.00;;
70927;SDS011;58587;53.034;18.576;2023-06-22T14:48:06;4.22;;;3.45;;
70927;SDS011;58587;53.034;18.576;2023-06-22T14:50:31;3.80;;;3.50;;
70927;SDS011;58587;53.034;18.576;2023-06-22T14:52:56;3.50;;;3.20;;
70927;SDS011;58587;53.034;18.576;2023-06-22T14:55:22;3.80;;;3.50;;
70927;SDS011;58587;53.034;18.576;2023-06-22T14:57:47;4.67;;;3.50;;
70927;SDS011;58587;53.034;18.576;2023-06-22T15:00:12;4.93;;;3.93;;
70927;SDS011;58587;53.034;18.576;2023-06-22T15:02:38;6.10;;;3.92;;
70927;SDS011;58587;53.034;18.576;2023-06-22T15:05:03;5.40;;;4.90;;
70927;SDS011;58587;53.034;18.576;2023-06-22T15:07:29;4.77;;;4.30;;
70927;SDS011;58587;53.034;18.576;2023-06-22T15:09:54;4.13;;;3.77;;
70927;SDS011;58587;53.034;18.576;2023-06-22T15:12:19;3.87;;;3.47;;
70927;SDS011;58587;53.034;18.576;2023-06-22T15:14:45;5.10;;;3.30;;
70927;SDS011;58587;53.034;18.576;2023-06-22T15:17:10;3.90;;;3.60;;
70927;SDS011;58587;53.034;18.576;2023-06-22T15:19:36;4.33;;;3.90;;
70927;SDS011;58587;53.034;18.576;2023-06-22T15:22:05;4.10;;;3.70;;
70927;SDS011;58587;53.034;18.576;2023-06-22T15:24:31;4.18;;;3.55;;
70927;SDS011;58587;53.034;18.576;2023-06-22T15:26:56;4.60;;;3.43;;
70927;SDS011;58587;53.034;18.576;2023-06-22T15:29:22;4.17;;;3.70;;
70927;SDS011;58587;53.034;18.576;2023-06-22T15:31:47;4.23;;;3.60;;
70927;SDS011;58587;53.034;18.576;2023-06-22T15:34:13;3.70;;;3.40;;
70927;SDS011;58587;53.034;18.576;2023-06-22T15:36:39;3.60;;;3.27;;
70927;SDS011;58587;53.034;18.576;2023-06-22T15:39:05;5.53;;;3.47;;
70927;SDS011;58587;53.034;18.576;2023-06-22T15:41:30;4.67;;;3.43;;
70927;SDS011;58587;53.034;18.576;2023-06-22T15:43:55;3.20;;;2.97;;
70927;SDS011;58587;53.034;18.576;2023-06-22T15:46:21;4.47;;;3.40;;
70927;SDS011;58587;53.034;18.576;2023-06-22T15:48:46;4.37;;;3.67;;
70927;SDS011;58587;53.034;18.576;2023-06-22T15:51:11;3.67;;;3.30;;
70927;SDS011;58587;53.034;18.576;2023-06-22T15:53:37;3.57;;;3.27;;
70927;SDS011;58587;53.034;18.576;2023-06-22T15:56:02;4.03;;;3.13;;
70927;SDS011;58587;53.034;18.576;2023-06-22T15:58:29;5.60;;;3.33;;
70927;SDS011;58587;53.034;18.576;2023-06-22T16:00:54;3.73;;;3.27;;
70927;SDS011;58587;53.034;18.576;2023-06-22T16:03:20;4.07;;;3.42;;
70927;SDS011;58587;53.034;18.576;2023-06-22T16:05:45;4.53;;;3.00;;
70927;SDS011;58587;53.034;18.576;2023-06-22T16:08:10;5.17;;;3.00;;
70927;SDS011;58587;53.034;18.576;2023-06-22T16:10:37;3.65;;;3.22;;
70927;SDS011;58587;53.034;18.576;2023-06-22T16:13:03;3.40;;;3.10;;
70927;SDS011;58587;53.034;18.576;2023-06-22T16:15:28;4.10;;;3.03;;
70927;SDS011;58587;53.034;18.576;2023-06-22T16:17:54;3.10;;;2.80;;
70927;SDS011;58587;53.034;18.576;2023-06-22T16:20:19;4.17;;;3.50;;
70927;SDS011;58587;53.034;18.576;2023-06-22T16:22:46;3.93;;;3.50;;
70927;SDS011;58587;53.034;18.576;2023-06-22T16:25:12;4.20;;;3.03;;
70927;SDS011;58587;53.034;18.576;2023-06-22T16:27:38;4.45;;;3.03;;
70927;SDS011;58587;53.034;18.576;2023-06-22T16:30:04;4.13;;;3.00;;
70927;SDS011;58587;53.034;18.576;2023-06-22T16:32:32;8.05;;;3.25;;
70927;SDS011;58587;53.034;18.576;2023-06-22T16:34:58;4.67;;;3.30;;
70927;SDS011;58587;53.034;18.576;2023-06-22T16:37:23;3.17;;;2.77;;
70927;SDS011;58587;53.034;18.576;2023-06-22T16:39:49;4.35;;;3.00;;
70927;SDS011;58587;53.034;18.576;2023-06-22T16:42:14;5.10;;;2.77;;
70927;SDS011;58587;53.034;18.576;2023-06-22T16:44:39;4.83;;;2.93;;
70927;SDS011;58587;53.034;18.576;2023-06-22T16:47:05;10.00;;;3.60;;
70927;SDS011;58587;53.034;18.576;2023-06-22T16:49:30;7.30;;;2.85;;
70927;SDS011;58587;53.034;18.576;2023-06-22T16:51:57;4.83;;;2.73;;
70927;SDS011;58587;53.034;18.576;2023-06-22T16:54:23;5.38;;;2.63;;
70927;SDS011;58587;53.034;18.576;2023-06-22T16:56:49;4.00;;;2.80;;
70927;SDS011;58587;53.034;18.576;2023-06-22T16:59:14;4.93;;;2.60;;
70927;SDS011;58587;53.034;18.576;2023-06-22T17:01:44;3.70;;;2.90;;
70927;SDS011;58587;53.034;18.576;2023-06-22T17:04:16;3.88;;;2.90;;
70927;SDS011;58587;53.034;18.576;2023-06-22T17:06:47;3.30;;;2.65;;
70927;SDS011;58587;53.034;18.576;2023-06-22T17:09:19;3.97;;;2.95;;
70927;SDS011;58587;53.034;18.576;2023-06-22T17:11:49;4.15;;;3.03;;
70927;SDS011;58587;53.034;18.576;2023-06-22T17:14:16;4.80;;;3.13;;
70927;SDS011;58587;53.034;18.576;2023-06-22T17:16:42;3.35;;;2.75;;
70927;SDS011;58587;53.034;18.576;2023-06-22T17:19:09;4.10;;;2.67;;
70927;SDS011;58587;53.034;18.576;2023-06-22T17:21:36;4.68;;;3.00;;
70927;SDS011;58587;53.034;18.576;2023-06-22T17:24:01;6.17;;;3.10;;
70927;SDS011;58587;53.034;18.576;2023-06-22T17:26:27;4.05;;;2.92;;
70927;SDS011;58587;53.034;18.576;2023-06-22T17:28:53;6.10;;;3.10;;
70927;SDS011;58587;53.034;18.576;2023-06-22T17:31:25;6.10;;;3.00;;
70927;SDS011;58587;53.034;18.576;2023-06-22T17:34:15;3.90;;;3.10;;
70927;SDS011;58587;53.034;18.576;2023-06-22T17:36:48;6.10;;;3.75;;
70927;SDS011;58587;53.034;18.576;2023-06-22T17:39:17;5.22;;;3.00;;
70927;SDS011;58587;53.034;18.576;2023-06-22T17:41:44;6.67;;;3.27;;
70927;SDS011;58587;53.034;18.576;2023-06-22T17:44:18;5.75;;;2.83;;
70927;SDS011;58587;53.034;18.576;2023-06-22T17:46:44;5.32;;;3.45;;
70927;SDS011;58587;53.034;18.576;2023-06-22T17:49:10;3.33;;;3.00;;
70927;SDS011;58587;53.034;18.576;2023-06-22T17:51:40;5.38;;;3.35;;
70927;SDS011;58587;53.034;18.576;2023-06-22T17:54:06;6.07;;;3.13;;
70927;SDS011;58587;53.034;18.576;2023-06-22T17:56:32;6.10;;;3.30;;
70927;SDS011;58587;53.034;18.576;2023-06-22T17:58:57;5.30;;;4.07;;
70927;SDS011;58587;53.034;18.576;2023-06-22T18:04:07;4.57;;;2.60;;
70927;SDS011;58587;53.034;18.576;2023-06-22T18:06:37;4.47;;;3.08;;
70927;SDS011;58587;53.034;18.576;2023-06-22T18:09:03;5.15;;;3.22;;
70927;SDS011;58587;53.034;18.576;2023-06-22T18:14:13;3.33;;;3.03;;
70927;SDS011;58587;53.034;18.576;2023-06-22T18:16:39;4.72;;;3.20;;
70927;SDS011;58587;53.034;18.576;2023-06-22T18:19:08;3.60;;;3.30;;
70927;SDS011;58587;53.034;18.576;2023-06-22T18:21:34;4.30;;;3.60;;
70927;SDS011;58587;53.034;18.576;2023-06-22T18:24:01;20.83;;;3.43;;
70927;SDS011;58587;53.034;18.576;2023-06-22T18:26:26;6.85;;;3.35;;
70927;SDS011;58587;53.034;18.576;2023-06-22T18:28:55;4.63;;;3.30;;
70927;SDS011;58587;53.034;18.576;2023-06-22T18:31:22;7.43;;;3.22;;
70927;SDS011;58587;53.034;18.576;2023-06-22T18:33:52;4.43;;;3.60;;
70927;SDS011;58587;53.034;18.576;2023-06-22T18:36:28;8.07;;;5.38;;
70927;SDS011;58587;53.034;18.576;2023-06-22T18:38:57;13.38;;;9.25;;
70927;SDS011;58587;53.034;18.576;2023-06-22T18:41:34;8.02;;;4.90;;
70927;SDS011;58587;53.034;18.576;2023-06-22T18:44:11;17.58;;;4.10;;
70927;SDS011;58587;53.034;18.576;2023-06-22T18:46:43;5.63;;;3.57;;
70927;SDS011;58587;53.034;18.576;2023-06-22T18:49:12;4.28;;;3.28;;
70927;SDS011;58587;53.034;18.576;2023-06-22T18:54:38;4.70;;;3.50;;
70927;SDS011;58587;53.034;18.576;2023-06-22T18:57:12;5.60;;;3.88;;
70927;SDS011;58587;53.034;18.576;2023-06-22T18:59:39;6.28;;;3.28;;
70927;SDS011;58587;53.034;18.576;2023-06-22T19:02:09;5.10;;;3.30;;
70927;SDS011;58587;53.034;18.576;2023-06-22T19:04:39;5.70;;;3.40;;
70927;SDS011;58587;53.034;18.576;2023-06-22T19:07:06;5.13;;;3.30;;
70927;SDS011;58587;53.034;18.576;2023-06-22T19:09:34;4.57;;;3.30;;
70927;SDS011;58587;53.034;18.576;2023-06-22T19:12:19;5.27;;;3.40;;
70927;SDS011;58587;53.034;18.576;2023-06-22T19:15:00;5.88;;;3.80;;
70927;SDS011;58587;53.034;18.576;2023-06-22T19:17:34;7.80;;;3.78;;
70927;SDS011;58587;53.034;18.576;2023-06-22T19:20:03;5.30;;;3.63;;
70927;SDS011;58587;53.034;18.576;2023-06-22T19:22:42;6.25;;;3.97;;
70927;SDS011;58587;53.034;18.576;2023-06-22T19:25:16;5.80;;;3.85;;
70927;SDS011;58587;53.034;18.576;2023-06-22T19:27:42;8.63;;;5.75;;
70927;SDS011;58587;53.034;18.576;2023-06-22T19:30:08;11.20;;;6.27;;
70927;SDS011;58587;53.034;18.576;2023-06-22T19:32:34;10.32;;;6.40;;
70927;SDS011;58587;53.034;18.576;2023-06-22T19:34:59;11.37;;;6.27;;
70927;SDS011;58587;53.034;18.576;2023-06-22T19:37:27;10.02;;;5.30;;
70927;SDS011;58587;53.034;18.576;2023-06-22T19:39:52;11.88;;;5.50;;
70927;SDS011;58587;53.034;18.576;2023-06-22T19:42:18;8.50;;;5.37;;
70927;SDS011;58587;53.034;18.576;2023-06-22T19:44:43;10.60;;;5.50;;
70927;SDS011;58587;53.034;18.576;2023-06-22T19:47:09;11.20;;;5.93;;
70927;SDS011;58587;53.034;18.576;2023-06-22T19:49:34;8.67;;;5.10;;
70927;SDS011;58587;53.034;18.576;2023-06-22T19:52:06;7.63;;;5.10;;
70927;SDS011;58587;53.034;18.576;2023-06-22T19:54:32;8.27;;;5.05;;
70927;SDS011;58587;53.034;18.576;2023-06-22T19:57:01;12.33;;;6.93;;
70927;SDS011;58587;53.034;18.576;2023-06-22T19:59:27;12.35;;;6.85;;
70927;SDS011;58587;53.034;18.576;2023-06-22T20:01:52;9.97;;;6.07;;
70927;SDS011;58587;53.034;18.576;2023-06-22T20:04:18;8.13;;;5.40;;
70927;SDS011;58587;53.034;18.576;2023-06-22T20:07:02;9.03;;;5.30;;
70927;SDS011;58587;53.034;18.576;2023-06-22T20:09:28;7.65;;;5.53;;
70927;SDS011;58587;53.034;18.576;2023-06-22T20:11:56;8.07;;;5.63;;
70927;SDS011;58587;53.034;18.576;2023-06-22T20:14:22;10.15;;;7.38;;
70927;SDS011;58587;53.034;18.576;2023-06-22T20:16:48;9.27;;;6.17;;
70927;SDS011;58587;53.034;18.576;2023-06-22T20:19:19;8.80;;;5.95;;
70927;SDS011;58587;53.034;18.576;2023-06-22T20:21:45;9.77;;;5.57;;
70927;SDS011;58587;53.034;18.576;2023-06-22T20:24:11;11.07;;;6.43;;
70927;SDS011;58587;53.034;18.576;2023-06-22T20:26:40;12.32;;;6.68;;
70927;SDS011;58587;53.034;18.576;2023-06-22T20:29:22;10.40;;;6.82;;
70927;SDS011;58587;53.034;18.576;2023-06-22T20:34:39;7.53;;;5.43;;
70927;SDS011;58587;53.034;18.576;2023-06-22T20:37:10;10.77;;;5.32;;
70927;SDS011;58587;53.034;18.576;2023-06-22T20:39:36;10.48;;;5.45;;
70927;SDS011;58587;53.034;18.576;2023-06-22T20:42:01;8.07;;;5.50;;
70927;SDS011;58587;53.034;18.576;2023-06-22T20:44:29;10.52;;;5.40;;
70927;SDS011;58587;53.034;18.576;2023-06-22T20:46:54;8.68;;;5.68;;
70927;SDS011;58587;53.034;18.576;2023-06-22T20:49:20;12.60;;;6.20;;
70927;SDS011;58587;53.034;18.576;2023-06-22T20:51:45;12.37;;;6.40;;
70927;SDS011;58587;53.034;18.576;2023-06-22T20:54:11;9.63;;;6.30;;
70927;SDS011;58587;53.034;18.576;2023-06-22T20:56:36;14.97;;;7.83;;
70927;SDS011;58587;53.034;18.576;2023-06-22T20:59:01;10.87;;;6.83;;
70927;SDS011;58587;53.034;18.576;2023-06-22T21:01:27;16.83;;;9.20;;
70927;SDS011;58587;53.034;18.576;2023-06-22T21:03:57;18.93;;;8.50;;
70927;SDS011;58587;53.034;18.576;2023-06-22T21:06:23;15.38;;;6.90;;
70927;SDS011;58587;53.034;18.576;2023-06-22T21:08:48;10.77;;;6.77;;
70927;SDS011;58587;53.034;18.576;2023-06-22T21:11:14;10.80;;;6.23;;
70927;SDS011;58587;53.034;18.576;2023-06-22T21:13:39;15.07;;;8.00;;
70927;SDS011;58587;53.034;18.576;2023-06-22T21:16:06;12.80;;;7.35;;
70927;SDS011;58587;53.034;18.576;2023-06-22T21:18:31;11.70;;;6.77;;
